sensor_id;sensor_type;location;lat;lon;timestamp;pressure;altitude;pressure_sealevel;temperature;humidity
53940;BME280;39850;43.324;21.916;2024-01-15T00:04:47;986.0;;;-0.1;72.0
53940;BME280;39850;43.324;21.916;2024-01-15T00:09:24;986.0;;;-0.1;72.0
53940;BME280;39850;43.324;21.916;2024-01-15T00:14:00;986.0;;;-0.1;72.0
53940;BME280;39850;43.324;21.916;2024-01-15T00:18:36;986.0;;;-0.1;72.0
53940;BME280;39850;43.324;21.916;2024-01-15T00:23:12;986.0;;;-0.1;72.0
53940;BME280;39850;43.324;21.916;2024-01-15T00:27:48;986.0;;;-0.1;72.0
53940;BME280;39850;43.324;21.916;2024-01-15T00:32:24;986.0;;;-0.1;72.0
53940;BME280;39850;43.324;21.916;2024-01-15T00:37:00;986.0;;;-0.1;73.0
53940;BME280;39850;43.324;21.916;2024-01-15T00:41:36;986.0;;;-0.1;73.0
53940;BME280;39850;43.324;21.916;2024-01-15T01:27:38;986.0;;;-0.1;72.0
53940;BME280;39850;43.324;21.916;2024-01-15T01:32:15;986.0;;;-0.1;72.0
53940;BME280;39850;43.324;21.916;2024-01-15T01:36:51;986.0;;;-0.1;72.0
53940;BME280;39850;43.324;21.916;2024-01-15T01:41:27;986.0;;;-0.1;72.0
53940;BME280;39850;43.324;21.916;2024-01-15T01:46:06;986.0;;;-0.1;72.0
53940;BME280;39850;43.324;21.916;2024-01-15T01:50:44;986.0;;;-0.1;72.0
53940;BME280;39850;43.324;21.916;2024-01-15T01:55:31;986.0;;;-0.1;73.0
53940;BME280;39850;43.324;21.916;2024-01-15T02:00:14;986.0;;;-0.1;73.0
53940;BME280;39850;43.324;21.916;2024-01-15T02:04:51;986.0;;;-0.1;72.0
53940;BME280;39850;43.324;21.916;2024-01-15T02:09:27;986.0;;;-0.1;72.0
53940;BME280;39850;43.324;21.916;2024-01-15T02:14:04;986.0;;;-0.1;72.0
53940;BME280;39850;43.324;21.916;2024-01-15T02:46:21;985.0;;;0.9;72.0
53940;BME280;39850;43.324;21.916;2024-01-15T02:50:57;985.0;;;0.9;72.0
53940;BME280;39850;43.324;21.916;2024-01-15T02:55:33;985.0;;;0.9;72.0
53940;BME280;39850;43.324;21.916;2024-01-15T03:00:14;985.0;;;0.9;72.0
53940;BME280;39850;43.324;21.916;2024-01-15T03:04:50;985.0;;;0.9;73.0
53940;BME280;39850;43.324;21.916;2024-01-15T03:09:27;985.0;;;0.9;73.0
53940;BME280;39850;43.324;21.916;2024-01-15T03:14:03;985.0;;;0.9;73.0
53940;BME280;39850;43.324;21.916;2024-01-15T03:18:40;985.0;;;0.7;73.0
53940;BME280;39850;43.324;21.916;2024-01-15T03:23:16;985.0;;;0.7;73.0
53940;BME280;39850;43.324;21.916;2024-01-15T03:27:52;985.0;;;0.5;73.0
53940;BME280;39850;43.324;21.916;2024-01-15T03:32:29;985.0;;;0.5;73.0
53940;BME280;39850;43.324;21.916;2024-01-15T04:09:29;984.0;;;0.7;71.0
53940;BME280;39850;43.324;21.916;2024-01-15T04:14:05;984.0;;;0.7;71.0
53940;BME280;39850;43.324;21.916;2024-01-15T04:18:42;984.0;;;0.7;71.0
53940;BME280;39850;43.324;21.916;2024-01-15T04:23:18;984.0;;;0.7;71.0
53940;BME280;39850;43.324;21.916;2024-01-15T04:27:55;984.0;;;0.7;71.0
53940;BME280;39850;43.324;21.916;2024-01-15T04:32:31;984.0;;;0.7;71.0
53940;BME280;39850;43.324;21.916;2024-01-15T04:37:08;984.0;;;0.7;71.0
53940;BME280;39850;43.324;21.916;2024-01-15T04:41:44;984.0;;;0.7;71.0
53940;BME280;39850;43.324;21.916;2024-01-15T04:46:20;984.0;;;0.7;71.0
53940;BME280;39850;43.324;21.916;2024-01-15T04:50:57;984.0;;;0.7;71.0
53940;BME280;39850;43.324;21.916;2024-01-15T05:27:49;983.0;;;1.8;71.0
53940;BME280;39850;43.324;21.916;2024-01-15T05:32:26;983.0;;;1.8;71.0
53940;BME280;39850;43.324;21.916;2024-01-15T05:37:03;984.0;;;1.8;71.0
53940;BME280;39850;43.324;21.916;2024-01-15T05:41:39;984.0;;;1.8;71.0
53940;BME280;39850;43.324;21.916;2024-01-15T05:46:16;983.0;;;1.8;71.0
53940;BME280;39850;43.324;21.916;2024-01-15T05:50:54;983.0;;;1.8;71.0
53940;BME280;39850;43.324;21.916;2024-01-15T05:55:30;984.0;;;1.8;71.0
53940;BME280;39850;43.324;21.916;2024-01-15T06:00:11;984.0;;;1.8;71.0
53940;BME280;39850;43.324;21.916;2024-01-15T06:04:47;984.0;;;1.8;71.0
53940;BME280;39850;43.324;21.916;2024-01-15T06:09:24;983.0;;;1.7;71.0
53940;BME280;39850;43.324;21.916;2024-01-15T06:14:01;983.0;;;1.7;71.0
53940;BME280;39850;43.324;21.916;2024-01-15T06:46:23;983.0;;;1.6;70.0
53940;BME280;39850;43.324;21.916;2024-01-15T06:50:59;983.0;;;1.6;70.0
53940;BME280;39850;43.324;21.916;2024-01-15T06:55:39;983.0;;;2.0;69.0
53940;BME280;39850;43.324;21.916;2024-01-15T07:00:18;983.0;;;2.0;69.0
53940;BME280;39850;43.324;21.916;2024-01-15T07:04:55;983.0;;;2.0;69.0
53940;BME280;39850;43.324;21.916;2024-01-15T07:09:31;983.0;;;2.5;69.0
53940;BME280;39850;43.324;21.916;2024-01-15T07:14:07;983.0;;;2.5;69.0
53940;BME280;39850;43.324;21.916;2024-01-15T07:18:43;983.0;;;2.6;69.0
53940;BME280;39850;43.324;21.916;2024-01-15T07:23:20;983.0;;;2.6;69.0
53940;BME280;39850;43.324;21.916;2024-01-15T07:27:56;983.0;;;2.7;69.0
53940;BME280;39850;43.324;21.916;2024-01-15T07:32:33;983.0;;;2.7;69.0
53940;BME280;39850;43.324;21.916;2024-01-15T08:09:25;983.0;;;2.5;70.0
53940;BME280;39850;43.324;21.916;2024-01-15T08:14:01;983.0;;;2.5;70.0
53940;BME280;39850;43.324;21.916;2024-01-15T08:18:38;983.0;;;2.5;69.0
53940;BME280;39850;43.324;21.916;2024-01-15T08:23:15;983.0;;;2.5;69.0
53940;BME280;39850;43.324;21.916;2024-01-15T08:27:52;983.0;;;2.5;69.0
53940;BME280;39850;43.324;21.916;2024-01-15T08:32:28;983.0;;;2.5;69.0
53940;BME280;39850;43.324;21.916;2024-01-15T08:37:04;983.0;;;2.6;68.0
53940;BME280;39850;43.324;21.916;2024-01-15T08:41:41;983.0;;;2.6;68.0
53940;BME280;39850;43.324;21.916;2024-01-15T08:46:17;983.0;;;2.7;69.0
53940;BME280;39850;43.324;21.916;2024-01-15T08:50:55;983.0;;;2.7;69.0
53940;BME280;39850;43.324;21.916;2024-01-15T08:55:32;983.0;;;2.7;69.0
53940;BME280;39850;43.324;21.916;2024-01-15T09:27:53;982.0;;;3.5;69.0
53940;BME280;39850;43.324;21.916;2024-01-15T09:32:29;982.0;;;3.5;69.0
53940;BME280;39850;43.324;21.916;2024-01-15T09:37:05;982.0;;;3.5;69.0
53940;BME280;39850;43.324;21.916;2024-01-15T09:41:44;982.0;;;3.5;69.0
53940;BME280;39850;43.324;21.916;2024-01-15T09:46:21;982.0;;;3.5;69.0
53940;BME280;39850;43.324;21.916;2024-01-15T09:50:58;982.0;;;3.5;69.0
53940;BME280;39850;43.324;21.916;2024-01-15T09:55:37;982.0;;;3.5;69.0
53940;BME280;39850;43.324;21.916;2024-01-15T10:00:18;982.0;;;3.6;69.0
53940;BME280;39850;43.324;21.916;2024-01-15T10:04:55;982.0;;;3.6;69.0
53940;BME280;39850;43.324;21.916;2024-01-15T10:09:31;982.0;;;3.8;69.0
53940;BME280;39850;43.324;21.916;2024-01-15T10:14:09;982.0;;;3.8;69.0
53940;BME280;39850;43.324;21.916;2024-01-15T10:46:34;980.0;;;5.5;65.0
53940;BME280;39850;43.324;21.916;2024-01-15T10:51:12;980.0;;;5.5;65.0
53940;BME280;39850;43.324;21.916;2024-01-15T10:55:51;980.0;;;5.5;65.0
53940;BME280;39850;43.324;21.916;2024-01-15T11:00:30;980.0;;;5.5;65.0
53940;BME280;39850;43.324;21.916;2024-01-15T11:05:07;980.0;;;5.5;65.0
53940;BME280;39850;43.324;21.916;2024-01-15T11:09:45;980.0;;;5.6;63.0
53940;BME280;39850;43.324;21.916;2024-01-15T11:14:48;980.0;;;5.6;63.0
53940;BME280;39850;43.324;21.916;2024-01-15T11:19:25;980.0;;;5.6;62.0
53940;BME280;39850;43.324;21.916;2024-01-15T11:24:03;980.0;;;5.6;62.0
53940;BME280;39850;43.324;21.916;2024-01-15T11:28:59;980.0;;;5.6;62.0
53940;BME280;39850;43.324;21.916;2024-01-15T11:33:49;980.0;;;5.6;62.0
53940;BME280;39850;43.324;21.916;2024-01-15T12:07:11;979.0;;;6.2;63.0
53940;BME280;39850;43.324;21.916;2024-01-15T12:12:23;979.0;;;6.2;63.0
53940;BME280;39850;43.324;21.916;2024-01-15T12:17:01;979.0;;;6.4;63.0
53940;BME280;39850;43.324;21.916;2024-01-15T12:21:40;979.0;;;6.4;63.0
53940;BME280;39850;43.324;21.916;2024-01-15T12:26:17;979.0;;;6.4;63.0
53940;BME280;39850;43.324;21.916;2024-01-15T12:30:55;979.0;;;6.5;62.0
53940;BME280;39850;43.324;21.916;2024-01-15T12:35:35;979.0;;;6.5;62.0
53940;BME280;39850;43.324;21.916;2024-01-15T12:40:21;979.0;;;6.9;62.0
53940;BME280;39850;43.324;21.916;2024-01-15T12:45:01;979.0;;;6.9;62.0
53940;BME280;39850;43.324;21.916;2024-01-15T12:49:38;979.0;;;7.3;62.0
53940;BME280;39850;43.324;21.916;2024-01-15T12:54:15;979.0;;;7.3;62.0
53940;BME280;39850;43.324;21.916;2024-01-15T13:31:07;979.0;;;7.1;62.0
53940;BME280;39850;43.324;21.916;2024-01-15T13:35:44;979.0;;;7.1;62.0
53940;BME280;39850;43.324;21.916;2024-01-15T13:40:20;979.0;;;7.1;63.0
53940;BME280;39850;43.324;21.916;2024-01-15T13:44:56;979.0;;;7.1;63.0
53940;BME280;39850;43.324;21.916;2024-01-15T13:49:33;979.0;;;7.1;64.0
53940;BME280;39850;43.324;21.916;2024-01-15T13:54:09;979.0;;;7.1;64.0
53940;BME280;39850;43.324;21.916;2024-01-15T13:58:45;979.0;;;7.1;65.0
53940;BME280;39850;43.324;21.916;2024-01-15T14:03:22;979.0;;;7.1;65.0
53940;BME280;39850;43.324;21.916;2024-01-15T14:07:58;979.0;;;7.1;66.0
53940;BME280;39850;43.324;21.916;2024-01-15T14:12:35;979.0;;;7.1;66.0
53940;BME280;39850;43.324;21.916;2024-01-15T14:49:25;978.0;;;7.3;76.0
53940;BME280;39850;43.324;21.916;2024-01-15T14:54:02;978.0;;;7.3;76.0
53940;BME280;39850;43.324;21.916;2024-01-15T14:58:38;978.0;;;7.2;78.0
53940;BME280;39850;43.324;21.916;2024-01-15T15:03:15;978.0;;;7.2;78.0
53940;BME280;39850;43.324;21.916;2024-01-15T15:07:52;978.0;;;7.2;79.0
53940;BME280;39850;43.324;21.916;2024-01-15T15:12:28;978.0;;;7.2;79.0
53940;BME280;39850;43.324;21.916;2024-01-15T15:17:05;978.0;;;6.7;79.0
53940;BME280;39850;43.324;21.916;2024-01-15T15:21:42;978.0;;;6.7;79.0
53940;BME280;39850;43.324;21.916;2024-01-15T15:26:18;978.0;;;6.7;79.0
53940;BME280;39850;43.324;21.916;2024-01-15T15:30:54;978.0;;;6.2;80.0
53940;BME280;39850;43.324;21.916;2024-01-15T15:35:31;978.0;;;6.2;80.0
53940;BME280;39850;43.324;21.916;2024-01-15T16:07:48;977.0;;;6.2;82.0
53940;BME280;39850;43.324;21.916;2024-01-15T16:12:25;977.0;;;6.2;82.0
53940;BME280;39850;43.324;21.916;2024-01-15T16:17:01;977.0;;;6.2;82.0
53940;BME280;39850;43.324;21.916;2024-01-15T16:21:39;977.0;;;6.2;82.0
53940;BME280;39850;43.324;21.916;2024-01-15T16:26:15;977.0;;;6.2;82.0
53940;BME280;39850;43.324;21.916;2024-01-15T16:30:52;977.0;;;6.3;82.0
53940;BME280;39850;43.324;21.916;2024-01-15T16:35:28;977.0;;;6.3;82.0
53940;BME280;39850;43.324;21.916;2024-01-15T16:40:10;977.0;;;6.3;82.0
53940;BME280;39850;43.324;21.916;2024-01-15T16:44:47;977.0;;;6.3;82.0
53940;BME280;39850;43.324;21.916;2024-01-15T16:49:23;977.0;;;6.3;82.0
53940;BME280;39850;43.324;21.916;2024-01-15T16:53:59;977.0;;;6.3;82.0
53940;BME280;39850;43.324;21.916;2024-01-15T17:30:51;977.0;;;6.3;83.0
53940;BME280;39850;43.324;21.916;2024-01-15T17:35:28;977.0;;;6.3;83.0
53940;BME280;39850;43.324;21.916;2024-01-15T17:40:09;977.0;;;6.2;82.0
53940;BME280;39850;43.324;21.916;2024-01-15T17:44:46;977.0;;;6.2;82.0
53940;BME280;39850;43.324;21.916;2024-01-15T17:49:23;977.0;;;6.2;82.0
53940;BME280;39850;43.324;21.916;2024-01-15T17:54:00;977.0;;;6.2;82.0
53940;BME280;39850;43.324;21.916;2024-01-15T17:58:37;977.0;;;6.2;82.0
53940;BME280;39850;43.324;21.916;2024-01-15T18:03:13;977.0;;;6.2;82.0
53940;BME280;39850;43.324;21.916;2024-01-15T18:07:50;977.0;;;6.2;82.0
53940;BME280;39850;43.324;21.916;2024-01-15T18:12:26;977.0;;;6.2;82.0
53940;BME280;39850;43.324;21.916;2024-01-15T18:17:03;977.0;;;6.2;82.0
53940;BME280;39850;43.324;21.916;2024-01-15T18:49:21;977.0;;;6.4;82.0
53940;BME280;39850;43.324;21.916;2024-01-15T18:53:58;977.0;;;6.4;82.0
53940;BME280;39850;43.324;21.916;2024-01-15T18:58:34;977.0;;;6.3;81.0
53940;BME280;39850;43.324;21.916;2024-01-15T19:03:10;977.0;;;6.3;81.0
53940;BME280;39850;43.324;21.916;2024-01-15T19:07:47;977.0;;;6.3;81.0
53940;BME280;39850;43.324;21.916;2024-01-15T19:12:23;977.0;;;6.2;80.0
53940;BME280;39850;43.324;21.916;2024-01-15T19:17:03;977.0;;;6.2;80.0
53940;BME280;39850;43.324;21.916;2024-01-15T19:21:39;977.0;;;6.2;80.0
53940;BME280;39850;43.324;21.916;2024-01-15T19:26:19;977.0;;;6.2;80.0
53940;BME280;39850;43.324;21.916;2024-01-15T19:30:55;977.0;;;6.2;80.0
53940;BME280;39850;43.324;21.916;2024-01-15T19:35:32;977.0;;;6.2;80.0
53940;BME280;39850;43.324;21.916;2024-01-15T20:12:26;977.0;;;7.1;77.0
53940;BME280;39850;43.324;21.916;2024-01-15T20:17:04;977.0;;;7.1;77.0
53940;BME280;39850;43.324;21.916;2024-01-15T20:21:40;977.0;;;7.2;77.0
53940;BME280;39850;43.324;21.916;2024-01-15T20:26:16;977.0;;;7.2;77.0
53940;BME280;39850;43.324;21.916;2024-01-15T20:30:53;977.0;;;7.3;76.0
53940;BME280;39850;43.324;21.916;2024-01-15T20:35:29;977.0;;;7.3;76.0
53940;BME280;39850;43.324;21.916;2024-01-15T20:40:10;977.0;;;7.3;76.0
53940;BME280;39850;43.324;21.916;2024-01-15T20:44:46;977.0;;;7.3;76.0
53940;BME280;39850;43.324;21.916;2024-01-15T20:49:22;977.0;;;7.3;76.0
53940;BME280;39850;43.324;21.916;2024-01-15T20:53:59;977.0;;;7.3;76.0
53940;BME280;39850;43.324;21.916;2024-01-15T21:30:52;977.0;;;6.2;77.0
53940;BME280;39850;43.324;21.916;2024-01-15T21:35:29;977.0;;;6.2;77.0
53940;BME280;39850;43.324;21.916;2024-01-15T21:40:08;977.0;;;6.3;77.0
53940;BME280;39850;43.324;21.916;2024-01-15T21:44:45;977.0;;;6.3;77.0
53940;BME280;39850;43.324;21.916;2024-01-15T21:49:21;977.0;;;6.4;76.0
53940;BME280;39850;43.324;21.916;2024-01-15T21:54:00;977.0;;;6.4;76.0
53940;BME280;39850;43.324;21.916;2024-01-15T21:58:36;977.0;;;6.8;76.0
53940;BME280;39850;43.324;21.916;2024-01-15T22:03:13;977.0;;;6.8;76.0
53940;BME280;39850;43.324;21.916;2024-01-15T22:07:49;977.0;;;6.8;76.0
53940;BME280;39850;43.324;21.916;2024-01-15T22:12:26;977.0;;;7.3;75.0
53940;BME280;39850;43.324;21.916;2024-01-15T22:17:03;977.0;;;7.3;75.0
53940;BME280;39850;43.324;21.916;2024-01-15T22:49:23;976.0;;;7.3;72.0
53940;BME280;39850;43.324;21.916;2024-01-15T22:53:59;976.0;;;7.3;72.0
53940;BME280;39850;43.324;21.916;2024-01-15T22:58:35;976.0;;;7.3;72.0
53940;BME280;39850;43.324;21.916;2024-01-15T23:03:12;976.0;;;7.3;72.0
53940;BME280;39850;43.324;21.916;2024-01-15T23:07:50;976.0;;;7.3;72.0
53940;BME280;39850;43.324;21.916;2024-01-15T23:12:26;976.0;;;7.3;73.0
53940;BME280;39850;43.324;21.916;2024-01-15T23:17:05;976.0;;;7.3;73.0
53940;BME280;39850;43.324;21.916;2024-01-15T23:21:42;976.0;;;7.2;73.0
53940;BME280;39850;43.324;21.916;2024-01-15T23:26:20;976.0;;;7.2;73.0
53940;BME280;39850;43.324;21.916;2024-01-15T23:30:56;976.0;;;7.1;74.0
53940;BME280;39850;43.324;21.916;2024-01-15T23:35:32;976.0;;;7.1;74.0
